sensor_id;sensor_type;location;lat;lon;timestamp;temperature;humidity
14031;DHT22;7090;49.436;8.490;2023-04-01T00:00:54;10.80;99.90
14031;DHT22;7090;49.436;8.490;2023-04-01T00:03:21;10.80;92.90
14031;DHT22;7090;49.436;8.490;2023-04-01T00:05:47;10.80;39.00
14031;DHT22;7090;49.436;8.490;2023-04-01T00:08:13;10.80;47.80
14031;DHT22;7090;49.436;8.490;2023-04-01T00:10:39;10.80;1.00
14031;DHT22;7090;49.436;8.490;2023-04-01T00:13:04;10.80;1.00
14031;DHT22;7090;49.436;8.490;2023-04-01T00:15:31;10.70;1.00
14031;DHT22;7090;49.436;8.490;2023-04-01T00:17:56;10.70;1.00
14031;DHT22;7090;49.436;8.490;2023-04-01T00:20:22;10.70;1.00
14031;DHT22;7090;49.436;8.490;2023-04-01T00:22:47;10.80;1.00
14031;DHT22;7090;49.436;8.490;2023-04-01T00:25:13;10.80;1.00
14031;DHT22;7090;49.436;8.490;2023-04-01T00:27:40;10.80;1.00
14031;DHT22;7090;49.436;8.490;2023-04-01T00:30:06;10.80;1.00
14031;DHT22;7090;49.436;8.490;2023-04-01T00:32:32;10.90;1.00
14031;DHT22;7090;49.436;8.490;2023-04-01T00:34:58;10.90;1.00
14031;DHT22;7090;49.436;8.490;2023-04-01T00:37:25;10.90;1.00
14031;DHT22;7090;49.436;8.490;2023-04-01T00:39:51;10.90;1.00
14031;DHT22;7090;49.436;8.490;2023-04-01T00:42:17;10.90;1.00
14031;DHT22;7090;49.436;8.490;2023-04-01T00:44:49;10.90;1.00
14031;DHT22;7090;49.436;8.490;2023-04-01T00:47:15;11.00;1.00
14031;DHT22;7090;49.436;8.490;2023-04-01T00:49:45;10.90;1.00
14031;DHT22;7090;49.436;8.490;2023-04-01T00:52:16;10.90;1.00
14031;DHT22;7090;49.436;8.490;2023-04-01T00:54:45;10.90;1.00
14031;DHT22;7090;49.436;8.490;2023-04-01T00:57:31;10.90;1.00
14031;DHT22;7090;49.436;8.490;2023-04-01T00:59:57;10.90;1.00
14031;DHT22;7090;49.436;8.490;2023-04-01T01:02:25;10.90;1.00
14031;DHT22;7090;49.436;8.490;2023-04-01T01:04:50;10.90;1.00
14031;DHT22;7090;49.436;8.490;2023-04-01T01:10:26;10.90;1.00
14031;DHT22;7090;49.436;8.490;2023-04-01T01:16:29;10.80;1.00
14031;DHT22;7090;49.436;8.490;2023-04-01T01:20:01;10.80;1.00
14031;DHT22;7090;49.436;8.490;2023-04-01T01:27:32;10.80;1.00
14031;DHT22;7090;49.436;8.490;2023-04-01T01:32:59;10.80;1.00
14031;DHT22;7090;49.436;8.490;2023-04-01T01:38:33;10.90;1.00
14031;DHT22;7090;49.436;8.490;2023-04-01T01:41:01;10.90;1.00
14031;DHT22;7090;49.436;8.490;2023-04-01T01:43:32;10.90;1.00
14031;DHT22;7090;49.436;8.490;2023-04-01T01:46:00;10.90;1.00
14031;DHT22;7090;49.436;8.490;2023-04-01T01:48:29;11.00;1.00
14031;DHT22;7090;49.436;8.490;2023-04-01T01:50:55;11.00;1.00
14031;DHT22;7090;49.436;8.490;2023-04-01T01:53:20;11.00;1.00
14031;DHT22;7090;49.436;8.490;2023-04-01T01:55:47;11.00;1.00
14031;DHT22;7090;49.436;8.490;2023-04-01T01:58:23;10.90;1.00
14031;DHT22;7090;49.436;8.490;2023-04-01T02:00:58;10.90;1.00
14031;DHT22;7090;49.436;8.490;2023-04-01T02:03:27;10.90;1.00
14031;DHT22;7090;49.436;8.490;2023-04-01T02:05:57;10.90;1.00
14031;DHT22;7090;49.436;8.490;2023-04-01T02:09:14;10.90;1.00
14031;DHT22;7090;49.436;8.490;2023-04-01T02:11:18;10.90;1.00
14031;DHT22;7090;49.436;8.490;2023-04-01T02:13:54;10.90;1.00
14031;DHT22;7090;49.436;8.490;2023-04-01T02:17:00;10.90;1.00
14031;DHT22;7090;49.436;8.490;2023-04-01T02:19:57;11.00;1.00
14031;DHT22;7090;49.436;8.490;2023-04-01T02:22:28;11.00;1.00
14031;DHT22;7090;49.436;8.490;2023-04-01T02:24:57;10.90;1.00
14031;DHT22;7090;49.436;8.490;2023-04-01T02:27:24;11.00;1.00
14031;DHT22;7090;49.436;8.490;2023-04-01T02:29:50;10.90;1.00
14031;DHT22;7090;49.436;8.490;2023-04-01T02:32:17;10.90;1.00
14031;DHT22;7090;49.436;8.490;2023-04-01T02:34:45;10.90;1.00
14031;DHT22;7090;49.436;8.490;2023-04-01T02:37:12;11.00;1.00
14031;DHT22;7090;49.436;8.490;2023-04-01T02:39:38;10.90;1.00
14031;DHT22;7090;49.436;8.490;2023-04-01T02:42:03;11.00;1.00
14031;DHT22;7090;49.436;8.490;2023-04-01T02:44:29;11.00;1.00
14031;DHT22;7090;49.436;8.490;2023-04-01T02:46:55;11.00;1.00
14031;DHT22;7090;49.436;8.490;2023-04-01T02:49:20;11.00;1.00
14031;DHT22;7090;49.436;8.490;2023-04-01T02:51:46;10.90;1.00
14031;DHT22;7090;49.436;8.490;2023-04-01T02:54:12;10.90;1.00
14031;DHT22;7090;49.436;8.490;2023-04-01T02:56:38;10.90;1.00
14031;DHT22;7090;49.436;8.490;2023-04-01T02:59:03;10.80;1.00
14031;DHT22;7090;49.436;8.490;2023-04-01T03:01:29;10.80;1.00
14031;DHT22;7090;49.436;8.490;2023-04-01T03:03:55;10.80;1.00
14031;DHT22;7090;49.436;8.490;2023-04-01T03:06:21;10.70;1.00
14031;DHT22;7090;49.436;8.490;2023-04-01T03:08:46;10.70;1.00
14031;DHT22;7090;49.436;8.490;2023-04-01T03:11:13;10.80;1.00
14031;DHT22;7090;49.436;8.490;2023-04-01T03:13:38;10.80;1.00
14031;DHT22;7090;49.436;8.490;2023-04-01T03:16:04;10.80;1.00
14031;DHT22;7090;49.436;8.490;2023-04-01T03:18:30;10.80;1.00
14031;DHT22;7090;49.436;8.490;2023-04-01T03:20:56;10.80;1.00
14031;DHT22;7090;49.436;8.490;2023-04-01T03:23:22;10.80;1.00
14031;DHT22;7090;49.436;8.490;2023-04-01T03:25:49;10.70;1.00
14031;DHT22;7090;49.436;8.490;2023-04-01T03:28:15;10.70;1.00
14031;DHT22;7090;49.436;8.490;2023-04-01T03:30:41;10.70;1.00
14031;DHT22;7090;49.436;8.490;2023-04-01T03:33:06;10.70;1.00
14031;DHT22;7090;49.436;8.490;2023-04-01T03:35:32;10.70;1.00
14031;DHT22;7090;49.436;8.490;2023-04-01T03:37:58;10.80;1.00
14031;DHT22;7090;49.436;8.490;2023-04-01T03:40:24;10.80;1.00
14031;DHT22;7090;49.436;8.490;2023-04-01T03:42:51;10.80;1.00
14031;DHT22;7090;49.436;8.490;2023-04-01T03:45:18;10.80;1.00
14031;DHT22;7090;49.436;8.490;2023-04-01T03:47:43;10.80;1.00
14031;DHT22;7090;49.436;8.490;2023-04-01T03:50:09;10.90;1.00
14031;DHT22;7090;49.436;8.490;2023-04-01T03:52:35;10.90;1.00
14031;DHT22;7090;49.436;8.490;2023-04-01T03:55:01;10.90;1.00
14031;DHT22;7090;49.436;8.490;2023-04-01T03:57:27;10.90;1.00
14031;DHT22;7090;49.436;8.490;2023-04-01T03:59:53;10.90;1.00
14031;DHT22;7090;49.436;8.490;2023-04-01T04:02:19;10.90;1.00
14031;DHT22;7090;49.436;8.490;2023-04-01T04:04:45;11.00;1.00
14031;DHT22;7090;49.436;8.490;2023-04-01T04:07:11;10.90;1.00
14031;DHT22;7090;49.436;8.490;2023-04-01T04:09:37;10.90;1.00
14031;DHT22;7090;49.436;8.490;2023-04-01T04:12:03;10.90;1.00
14031;DHT22;7090;49.436;8.490;2023-04-01T04:14:33;10.90;1.00
14031;DHT22;7090;49.436;8.490;2023-04-01T04:16:59;10.90;1.00
14031;DHT22;7090;49.436;8.490;2023-04-01T04:19:24;10.90;1.00
14031;DHT22;7090;49.436;8.490;2023-04-01T04:21:50;11.00;1.00
14031;DHT22;7090;49.436;8.490;2023-04-01T04:24:15;10.90;1.00
14031;DHT22;7090;49.436;8.490;2023-04-01T04:26:41;10.90;1.00
14031;DHT22;7090;49.436;8.490;2023-04-01T04:29:07;10.90;1.00
14031;DHT22;7090;49.436;8.490;2023-04-01T04:31:32;10.90;1.00
14031;DHT22;7090;49.436;8.490;2023-04-01T04:33:59;10.90;1.00
14031;DHT22;7090;49.436;8.490;2023-04-01T04:36:26;10.90;1.00
14031;DHT22;7090;49.436;8.490;2023-04-01T04:38:51;10.80;1.00
14031;DHT22;7090;49.436;8.490;2023-04-01T04:41:18;10.70;1.00
14031;DHT22;7090;49.436;8.490;2023-04-01T04:43:53;10.70;1.00
14031;DHT22;7090;49.436;8.490;2023-04-01T04:46:19;10.60;1.00
14031;DHT22;7090;49.436;8.490;2023-04-01T04:48:45;10.60;1.00
14031;DHT22;7090;49.436;8.490;2023-04-01T04:51:16;10.60;1.00
14031;DHT22;7090;49.436;8.490;2023-04-01T04:53:42;10.50;10.60
14031;DHT22;7090;49.436;8.490;2023-04-01T04:56:07;10.50;98.80
14031;DHT22;7090;49.436;8.490;2023-04-01T04:58:33;10.40;99.90
14031;DHT22;7090;49.436;8.490;2023-04-01T05:00:59;10.40;75.60
14031;DHT22;7090;49.436;8.490;2023-04-01T05:03:25;10.40;91.80
14031;DHT22;7090;49.436;8.490;2023-04-01T05:05:53;10.40;95.60
14031;DHT22;7090;49.436;8.490;2023-04-01T05:08:19;10.40;99.90
14031;DHT22;7090;49.436;8.490;2023-04-01T05:10:45;10.40;99.90
14031;DHT22;7090;49.436;8.490;2023-04-01T05:13:11;10.40;99.90
14031;DHT22;7090;49.436;8.490;2023-04-01T05:15:36;10.40;99.90
14031;DHT22;7090;49.436;8.490;2023-04-01T05:18:03;10.40;81.60
14031;DHT22;7090;49.436;8.490;2023-04-01T05:20:28;10.40;92.10
14031;DHT22;7090;49.436;8.490;2023-04-01T05:22:57;10.40;99.90
14031;DHT22;7090;49.436;8.490;2023-04-01T05:25:23;10.30;99.90
14031;DHT22;7090;49.436;8.490;2023-04-01T05:27:49;10.30;99.90
14031;DHT22;7090;49.436;8.490;2023-04-01T05:30:15;10.30;99.90
14031;DHT22;7090;49.436;8.490;2023-04-01T05:32:41;10.30;99.90
14031;DHT22;7090;49.436;8.490;2023-04-01T05:35:07;10.30;99.90
14031;DHT22;7090;49.436;8.490;2023-04-01T05:37:36;10.30;99.90
14031;DHT22;7090;49.436;8.490;2023-04-01T05:40:03;10.40;68.90
14031;DHT22;7090;49.436;8.490;2023-04-01T05:42:29;10.40;99.90
14031;DHT22;7090;49.436;8.490;2023-04-01T05:44:54;10.40;99.90
14031;DHT22;7090;49.436;8.490;2023-04-01T05:47:21;10.40;99.90
14031;DHT22;7090;49.436;8.490;2023-04-01T05:49:47;10.40;99.90
14031;DHT22;7090;49.436;8.490;2023-04-01T05:52:13;10.40;99.90
14031;DHT22;7090;49.436;8.490;2023-04-01T05:54:38;10.30;99.90
14031;DHT22;7090;49.436;8.490;2023-04-01T05:57:04;10.40;99.90
14031;DHT22;7090;49.436;8.490;2023-04-01T05:59:30;10.40;99.90
14031;DHT22;7090;49.436;8.490;2023-04-01T06:01:56;10.40;99.90
14031;DHT22;7090;49.436;8.490;2023-04-01T06:04:22;10.40;99.90
14031;DHT22;7090;49.436;8.490;2023-04-01T06:06:48;10.40;99.90
14031;DHT22;7090;49.436;8.490;2023-04-01T06:09:16;10.40;99.90
14031;DHT22;7090;49.436;8.490;2023-04-01T06:12:47;10.40;99.90
14031;DHT22;7090;49.436;8.490;2023-04-01T06:25:24;10.50;99.90
14031;DHT22;7090;49.436;8.490;2023-04-01T06:36:23;10.50;65.30
14031;DHT22;7090;49.436;8.490;2023-04-01T06:47:27;10.50;1.00
14031;DHT22;7090;49.436;8.490;2023-04-01T06:57:40;10.50;65.00
14031;DHT22;7090;49.436;8.490;2023-04-01T07:00:29;10.50;78.70
14031;DHT22;7090;49.436;8.490;2023-04-01T07:05:35;10.50;95.00
14031;DHT22;7090;49.436;8.490;2023-04-01T07:08:03;10.60;80.80
14031;DHT22;7090;49.436;8.490;2023-04-01T07:10:42;10.60;99.90
14031;DHT22;7090;49.436;8.490;2023-04-01T07:13:20;10.60;99.90
14031;DHT22;7090;49.436;8.490;2023-04-01T07:16:17;10.60;99.90
14031;DHT22;7090;49.436;8.490;2023-04-01T07:18:50;10.60;99.90
14031;DHT22;7090;49.436;8.490;2023-04-01T07:22:16;10.60;99.90
14031;DHT22;7090;49.436;8.490;2023-04-01T07:24:27;10.60;99.90
14031;DHT22;7090;49.436;8.490;2023-04-01T07:26:55;10.60;99.90
14031;DHT22;7090;49.436;8.490;2023-04-01T07:29:21;10.60;99.90
14031;DHT22;7090;49.436;8.490;2023-04-01T07:34:50;10.70;99.90
14031;DHT22;7090;49.436;8.490;2023-04-01T07:37:40;10.70;99.90
14031;DHT22;7090;49.436;8.490;2023-04-01T07:48:35;10.70;99.90
14031;DHT22;7090;49.436;8.490;2023-04-01T07:51:10;10.80;99.90
14031;DHT22;7090;49.436;8.490;2023-04-01T07:53:47;10.80;99.90
14031;DHT22;7090;49.436;8.490;2023-04-01T07:59:39;10.70;99.90
14031;DHT22;7090;49.436;8.490;2023-04-01T08:10:13;10.60;99.90
14031;DHT22;7090;49.436;8.490;2023-04-01T08:18:09;10.60;99.90
14031;DHT22;7090;49.436;8.490;2023-04-01T08:20:48;10.60;99.90
14031;DHT22;7090;49.436;8.490;2023-04-01T08:23:21;10.60;99.90
14031;DHT22;7090;49.436;8.490;2023-04-01T08:31:07;10.40;99.90
14031;DHT22;7090;49.436;8.490;2023-04-01T08:33:34;10.40;99.90
14031;DHT22;7090;49.436;8.490;2023-04-01T08:36:10;10.40;99.90
14031;DHT22;7090;49.436;8.490;2023-04-01T08:58:19;10.40;99.90
14031;DHT22;7090;49.436;8.490;2023-04-01T09:03:58;10.60;99.90
14031;DHT22;7090;49.436;8.490;2023-04-01T09:06:50;10.60;99.90
14031;DHT22;7090;49.436;8.490;2023-04-01T09:32:18;10.60;99.90
14031;DHT22;7090;49.436;8.490;2023-04-01T09:35:33;10.50;99.90
14031;DHT22;7090;49.436;8.490;2023-04-01T09:38:23;10.60;99.90
14031;DHT22;7090;49.436;8.490;2023-04-01T09:43:32;10.60;99.90
14031;DHT22;7090;49.436;8.490;2023-04-01T09:59:24;10.90;99.90
14031;DHT22;7090;49.436;8.490;2023-04-01T10:47:25;11.20;99.90
14031;DHT22;7090;49.436;8.490;2023-04-01T10:50:22;11.30;99.90
14031;DHT22;7090;49.436;8.490;2023-04-01T11:24:58;11.50;99.90
14031;DHT22;7090;49.436;8.490;2023-04-01T11:36:03;11.60;99.90
14031;DHT22;7090;49.436;8.490;2023-04-01T11:41:42;11.50;99.90
14031;DHT22;7090;49.436;8.490;2023-04-01T11:44:20;11.30;99.90
14031;DHT22;7090;49.436;8.490;2023-04-01T11:49:20;11.70;99.90
14031;DHT22;7090;49.436;8.490;2023-04-01T11:52:04;11.60;99.90
14031;DHT22;7090;49.436;8.490;2023-04-01T11:57:47;11.70;99.90
14031;DHT22;7090;49.436;8.490;2023-04-01T12:00:20;11.80;99.90
14031;DHT22;7090;49.436;8.490;2023-04-01T12:06:02;11.70;99.90
14031;DHT22;7090;49.436;8.490;2023-04-01T12:13:53;11.70;99.90
14031;DHT22;7090;49.436;8.490;2023-04-01T12:24:47;11.90;99.90
14031;DHT22;7090;49.436;8.490;2023-04-01T12:32:43;12.00;99.90
14031;DHT22;7090;49.436;8.490;2023-04-01T12:35:39;12.00;99.90
14031;DHT22;7090;49.436;8.490;2023-04-01T12:38:21;12.00;99.90
14031;DHT22;7090;49.436;8.490;2023-04-01T12:41:15;12.10;79.30
14031;DHT22;7090;49.436;8.490;2023-04-01T12:43:55;12.10;99.90
14031;DHT22;7090;49.436;8.490;2023-04-01T12:54:31;12.20;99.90
14031;DHT22;7090;49.436;8.490;2023-04-01T12:57:21;12.30;1.00
14031;DHT22;7090;49.436;8.490;2023-04-01T13:00:09;12.30;1.00
14031;DHT22;7090;49.436;8.490;2023-04-01T13:03:08;12.30;1.00
14031;DHT22;7090;49.436;8.490;2023-04-01T13:20:12;12.10;26.10
14031;DHT22;7090;49.436;8.490;2023-04-01T13:25:29;12.10;1.00
14031;DHT22;7090;49.436;8.490;2023-04-01T13:28:08;12.10;1.00
14031;DHT22;7090;49.436;8.490;2023-04-01T13:30:44;12.20;1.00
14031;DHT22;7090;49.436;8.490;2023-04-01T13:33:17;12.20;1.00
14031;DHT22;7090;49.436;8.490;2023-04-01T13:36:08;12.20;1.00
14031;DHT22;7090;49.436;8.490;2023-04-01T13:38:51;12.30;1.00
14031;DHT22;7090;49.436;8.490;2023-04-01T13:41:33;12.30;1.00
14031;DHT22;7090;49.436;8.490;2023-04-01T13:44:18;12.40;1.00
14031;DHT22;7090;49.436;8.490;2023-04-01T13:47:15;12.40;1.00
14031;DHT22;7090;49.436;8.490;2023-04-01T13:55:34;12.40;1.00
14031;DHT22;7090;49.436;8.490;2023-04-01T14:09:19;12.50;1.00
14031;DHT22;7090;49.436;8.490;2023-04-01T14:14:52;12.60;1.00
14031;DHT22;7090;49.436;8.490;2023-04-01T14:26:20;12.40;1.00
14031;DHT22;7090;49.436;8.490;2023-04-01T14:50:46;12.30;1.00
14031;DHT22;7090;49.436;8.490;2023-04-01T14:53:28;12.40;1.00
14031;DHT22;7090;49.436;8.490;2023-04-01T14:55:59;12.40;1.00
14031;DHT22;7090;49.436;8.490;2023-04-01T14:58:46;12.40;1.00
14031;DHT22;7090;49.436;8.490;2023-04-01T15:34:58;12.30;1.00
14031;DHT22;7090;49.436;8.490;2023-04-01T15:40:28;12.10;1.00
14031;DHT22;7090;49.436;8.490;2023-04-01T15:43:27;12.10;1.00
14031;DHT22;7090;49.436;8.490;2023-04-01T15:51:37;12.20;1.00
14031;DHT22;7090;49.436;8.490;2023-04-01T16:00:20;12.30;1.00
14031;DHT22;7090;49.436;8.490;2023-04-01T16:06:23;12.10;1.00
14031;DHT22;7090;49.436;8.490;2023-04-01T16:09:14;12.10;1.00
14031;DHT22;7090;49.436;8.490;2023-04-01T16:12:36;12.10;1.00
14031;DHT22;7090;49.436;8.490;2023-04-01T16:20:51;12.10;1.00
14031;DHT22;7090;49.436;8.490;2023-04-01T16:25:55;12.20;1.00
14031;DHT22;7090;49.436;8.490;2023-04-01T16:31:14;12.20;1.00
14031;DHT22;7090;49.436;8.490;2023-04-01T16:33:49;12.30;1.00
14031;DHT22;7090;49.436;8.490;2023-04-01T16:36:41;12.30;1.00
14031;DHT22;7090;49.436;8.490;2023-04-01T16:41:49;12.30;1.00
14031;DHT22;7090;49.436;8.490;2023-04-01T16:44:24;12.30;1.00
14031;DHT22;7090;49.436;8.490;2023-04-01T16:46:53;12.30;1.00
14031;DHT22;7090;49.436;8.490;2023-04-01T16:49:28;12.30;1.00
14031;DHT22;7090;49.436;8.490;2023-04-01T16:52:15;12.30;1.00
14031;DHT22;7090;49.436;8.490;2023-04-01T16:55:02;12.30;1.00
14031;DHT22;7090;49.436;8.490;2023-04-01T17:00:47;12.20;1.00
14031;DHT22;7090;49.436;8.490;2023-04-01T17:03:20;12.20;1.00
14031;DHT22;7090;49.436;8.490;2023-04-01T17:11:32;12.10;1.00
14031;DHT22;7090;49.436;8.490;2023-04-01T17:25:33;12.20;99.90
14031;DHT22;7090;49.436;8.490;2023-04-01T17:28:27;12.20;1.00
14031;DHT22;7090;49.436;8.490;2023-04-01T17:31:26;12.20;1.00
14031;DHT22;7090;49.436;8.490;2023-04-01T17:34:35;12.10;1.00
14031;DHT22;7090;49.436;8.490;2023-04-01T17:40:34;12.10;99.90
14031;DHT22;7090;49.436;8.490;2023-04-01T17:49:09;12.00;99.90
14031;DHT22;7090;49.436;8.490;2023-04-01T17:54:53;12.00;1.00
14031;DHT22;7090;49.436;8.490;2023-04-01T18:02:41;11.80;99.90
14031;DHT22;7090;49.436;8.490;2023-04-01T18:16:47;11.10;1.00
14031;DHT22;7090;49.436;8.490;2023-04-01T18:20:07;11.10;1.00
14031;DHT22;7090;49.436;8.490;2023-04-01T18:25:22;10.90;1.00
14031;DHT22;7090;49.436;8.490;2023-04-01T18:30:40;10.80;99.90
14031;DHT22;7090;49.436;8.490;2023-04-01T18:33:42;10.80;99.90
14031;DHT22;7090;49.436;8.490;2023-04-01T18:38:56;10.80;99.90
14031;DHT22;7090;49.436;8.490;2023-04-01T18:41:34;10.80;50.90
14031;DHT22;7090;49.436;8.490;2023-04-01T18:47:00;10.70;99.90
14031;DHT22;7090;49.436;8.490;2023-04-01T18:50:02;10.70;99.90
14031;DHT22;7090;49.436;8.490;2023-04-01T18:52:44;10.70;99.90
14031;DHT22;7090;49.436;8.490;2023-04-01T18:55:35;10.60;99.90
14031;DHT22;7090;49.436;8.490;2023-04-01T19:03:35;10.60;99.90
14031;DHT22;7090;49.436;8.490;2023-04-01T19:06:25;10.70;99.90
14031;DHT22;7090;49.436;8.490;2023-04-01T19:08:52;10.70;99.90
14031;DHT22;7090;49.436;8.490;2023-04-01T19:11:26;10.70;99.90
14031;DHT22;7090;49.436;8.490;2023-04-01T19:14:14;10.70;99.90
14031;DHT22;7090;49.436;8.490;2023-04-01T19:25:38;10.80;18.80
14031;DHT22;7090;49.436;8.490;2023-04-01T19:34:02;10.80;7.40
14031;DHT22;7090;49.436;8.490;2023-04-01T19:42:32;10.60;82.70
14031;DHT22;7090;49.436;8.490;2023-04-01T19:51:03;10.60;99.90
14031;DHT22;7090;49.436;8.490;2023-04-01T19:53:44;10.60;99.90
14031;DHT22;7090;49.436;8.490;2023-04-01T19:56:21;10.60;99.90
14031;DHT22;7090;49.436;8.490;2023-04-01T19:58:56;10.60;99.90
14031;DHT22;7090;49.436;8.490;2023-04-01T20:01:27;10.60;99.90
14031;DHT22;7090;49.436;8.490;2023-04-01T20:03:59;10.60;99.90
14031;DHT22;7090;49.436;8.490;2023-04-01T20:06:43;10.60;99.90
14031;DHT22;7090;49.436;8.490;2023-04-01T20:09:50;10.60;99.90
14031;DHT22;7090;49.436;8.490;2023-04-01T20:15:29;10.50;99.90
14031;DHT22;7090;49.436;8.490;2023-04-01T20:18:00;10.40;99.90
14031;DHT22;7090;49.436;8.490;2023-04-01T20:20:28;10.40;99.90
14031;DHT22;7090;49.436;8.490;2023-04-01T20:23:47;10.40;99.90
14031;DHT22;7090;49.436;8.490;2023-04-01T20:25:55;10.40;99.90
14031;DHT22;7090;49.436;8.490;2023-04-01T20:28:30;10.40;99.90
14031;DHT22;7090;49.436;8.490;2023-04-01T20:45:57;10.40;99.90
14031;DHT22;7090;49.436;8.490;2023-04-01T20:51:05;10.40;99.90
14031;DHT22;7090;49.436;8.490;2023-04-01T20:53:42;10.40;99.90
14031;DHT22;7090;49.436;8.490;2023-04-01T20:58:58;10.40;99.90
14031;DHT22;7090;49.436;8.490;2023-04-01T21:04:30;10.30;99.90
14031;DHT22;7090;49.436;8.490;2023-04-01T21:07:25;10.30;99.90
14031;DHT22;7090;49.436;8.490;2023-04-01T21:10:17;10.30;99.90
14031;DHT22;7090;49.436;8.490;2023-04-01T21:32:45;10.30;99.90
14031;DHT22;7090;49.436;8.490;2023-04-01T21:51:56;10.10;99.90
14031;DHT22;7090;49.436;8.490;2023-04-01T21:57:45;10.20;99.90
14031;DHT22;7090;49.436;8.490;2023-04-01T22:06:00;10.20;99.90
14031;DHT22;7090;49.436;8.490;2023-04-01T22:13:31;10.20;99.90
14031;DHT22;7090;49.436;8.490;2023-04-01T22:16:22;10.20;99.90
14031;DHT22;7090;49.436;8.490;2023-04-01T22:19:00;10.30;99.90
14031;DHT22;7090;49.436;8.490;2023-04-01T22:27:49;10.30;99.90
14031;DHT22;7090;49.436;8.490;2023-04-01T22:30:26;10.30;99.90
14031;DHT22;7090;49.436;8.490;2023-04-01T22:33:24;10.30;99.90
14031;DHT22;7090;49.436;8.490;2023-04-01T22:36:06;10.30;99.90
14031;DHT22;7090;49.436;8.490;2023-04-01T22:43:55;10.30;99.90
14031;DHT22;7090;49.436;8.490;2023-04-01T22:46:52;10.30;99.90
14031;DHT22;7090;49.436;8.490;2023-04-01T22:49:32;10.30;99.90
14031;DHT22;7090;49.436;8.490;2023-04-01T22:52:15;10.30;99.90
14031;DHT22;7090;49.436;8.490;2023-04-01T22:54:52;10.30;99.90
14031;DHT22;7090;49.436;8.490;2023-04-01T23:02:37;10.30;99.90
14031;DHT22;7090;49.436;8.490;2023-04-01T23:05:06;10.20;99.90
14031;DHT22;7090;49.436;8.490;2023-04-01T23:10:55;10.30;99.90
14031;DHT22;7090;49.436;8.490;2023-04-01T23:13:31;10.30;99.90
14031;DHT22;7090;49.436;8.490;2023-04-01T23:15:58;10.30;99.90
14031;DHT22;7090;49.436;8.490;2023-04-01T23:21:08;10.20;99.90
14031;DHT22;7090;49.436;8.490;2023-04-01T23:23:53;10.10;99.90
14031;DHT22;7090;49.436;8.490;2023-04-01T23:28:53;9.90;99.90
14031;DHT22;7090;49.436;8.490;2023-04-01T23:31:40;9.80;99.90
14031;DHT22;7090;49.436;8.490;2023-04-01T23:36:44;9.70;99.90
14031;DHT22;7090;49.436;8.490;2023-04-01T23:42:02;9.70;99.90
14031;DHT22;7090;49.436;8.490;2023-04-01T23:44:29;9.60;99.90
14031;DHT22;7090;49.436;8.490;2023-04-01T23:46:56;9.60;99.90
14031;DHT22;7090;49.436;8.490;2023-04-01T23:49:28;9.60;99.90
14031;DHT22;7090;49.436;8.490;2023-04-01T23:52:03;9.50;99.90
14031;DHT22;7090;49.436;8.490;2023-04-01T23:54:39;9.50;99.90
14031;DHT22;7090;49.436;8.490;2023-04-01T23:57:16;9.50;99.90
14031;DHT22;7090;49.436;8.490;2023-04-01T23:59:43;9.50;99.90
